Rocky Butte, Washington
Current Conditions -  °F | °C
As of 9:53 AM on Tuesday 21 Oct 2014 (Local Time) from KOMK Reporting Station
Overcast Overcast  
Wind Chill: 12°   Ceiling: 3700
Heat Index: 12°   Visibility: 10mi
Dew Point:   Wind: 8mph
Humidity: 80%   Direction: 210°SSW
Pressure: 29.87"   Gusts: NA
Location:  48.2133°N, 119.829°W
Report Text: KOMK 211653Z AUTO 21007KT 10SM OVC037 12/08 A2987 RMK AO2 SLP117 T01170083
Loading
Personal Weather Stations






























Interactive Weather Map
Tropical Storm Tracking
New forecast layout! Learn more

10-Day Weather Forecast

Advertisements
Track Severe Weather on mobile